PWSweather.com
Personal Weather Stations
Station Observations
METEORENI
Tielt, Witte Kave, TieltBE

Tielt, Witte KaveTieltBE

Lat: 50.9938727, Lon: 3.341134199999942

Elevation: 0

Station Type: Netatmo

Latest ConditionsUpdated 8:06:00 PM GMT+01:01 Tuesday, Nov 12, 2019
Currently Today's Max Today's Min Today's Average
Temperature 43.2°F6.2°C 46.6°F8.1°C 39.4°F4.1°C 42.3°F5.7°C
Dew Point 38.8°F3.8°C 42.6°F5.9°C 35.8°F2.1°C 38.4°F3.6°C
Winds 2.5 mph SW4.0 kmh SW 3.8 mph -6.1 kmh - - 2.6 mph 4.2 kmh
Wind Gusts 10.5 mph16.9 kmh 11.2 mph18.0 kmh - -
Humidity 88% 91% 88% 89%
Pressure 29.59 in1002.0 mb 29.71 in1006.1 mb 29.59 in1002.0 mb -
Precipitation - 0.02 in0.5 mm - -
Hour Temp Dew Point Humidity Winds Wind Gusts Pressure Precip Precip Rate Daily Precip Total
08:06 PM 43.2°F6.2°C 38.8°F3.8°C 88% 2.5 mph SW4.0 kmh SW 10.5 mph16.9 kmh 29.59 in1002.0 mb 0.00 in0.0 mm 0.00 in0.0 mm 0.02 in0.5 mm
07:46 PM 43.2°F6.2°C 38.8°F3.8°C 88% 2.5 mph SSW4.0 kmh SSW 8.7 mph14.0 kmh 29.59 in1002.0 mb 0.00 in0.0 mm 0.00 in0.0 mm 0.02 in0.5 mm
07:26 PM 43.2°F6.2°C 38.8°F3.8°C 88% 3.1 mph SW5.0 kmh SW 8.7 mph14.0 kmh 29.60 in1002.4 mb 0.00 in0.0 mm 0.00 in0.0 mm 0.02 in0.5 mm
07:06 PM 43.3°F6.3°C 39.0°F3.9°C 88% 2.5 mph SW4.0 kmh SW 5.6 mph9.0 kmh 29.60 in1002.4 mb 0.00 in0.0 mm 0.01 in0.3 mm 0.02 in0.5 mm
06:46 PM 43.2°F6.2°C 38.8°F3.8°C 88% 2.5 mph SW4.0 kmh SW 6.9 mph11.1 kmh 29.60 in1002.4 mb 0.00 in0.0 mm 0.00 in0.0 mm 0.02 in0.5 mm
06:25 PM 43.3°F6.3°C 39.0°F3.9°C 88% 3.8 mph SW6.1 kmh SW 11.2 mph18.0 kmh 29.60 in1002.4 mb 0.00 in0.0 mm 0.00 in0.0 mm 0.02 in0.5 mm
06:06 PM 43.3°F6.3°C 39.0°F3.9°C 88% 3.1 mph SW5.0 kmh SW 6.3 mph10.1 kmh 29.61 in1002.7 mb 0.00 in0.0 mm 0.00 in0.0 mm 0.02 in0.5 mm
05:45 PM 43.5°F6.4°C 39.2°F4.0°C 88% 2.5 mph SW4.0 kmh SW 5.6 mph9.0 kmh 29.61 in1002.7 mb 0.00 in0.0 mm 0.00 in0.0 mm 0.02 in0.5 mm
05:26 PM 43.7°F6.5°C 39.4°F4.1°C 88% 3.1 mph SW5.0 kmh SW 10.5 mph16.9 kmh 29.62 in1003.0 mb 0.00 in0.0 mm 0.00 in0.0 mm 0.02 in0.5 mm
05:05 PM 44.1°F6.7°C 39.7°F4.3°C 88% 2.5 mph SW4.0 kmh SW 8.1 mph13.0 kmh 29.62 in1003.0 mb 0.00 in0.0 mm 0.00 in0.0 mm 0.02 in0.5 mm
04:45 PM 44.6°F7.0°C 40.3°F4.6°C 88% 3.8 mph SW6.1 kmh SW 8.7 mph14.0 kmh 29.62 in1003.0 mb 0.00 in0.0 mm 0.00 in0.0 mm 0.02 in0.5 mm
04:25 PM 45.1°F7.3°C 40.6°F4.8°C 88% 3.1 mph SW5.0 kmh SW 8.7 mph14.0 kmh 29.62 in1003.0 mb 0.00 in0.0 mm 0.00 in0.0 mm 0.02 in0.5 mm
04:05 PM 45.7°F7.6°C 41.2°F5.1°C 88% 3.8 mph SSW6.1 kmh SSW 9.4 mph15.1 kmh 29.62 in1003.0 mb 0.00 in0.0 mm 0.00 in0.0 mm 0.02 in0.5 mm
03:46 PM 46.0°F7.8°C 42.1°F5.6°C 89% 3.1 mph SW5.0 kmh SW 10.5 mph16.9 kmh 29.62 in1003.0 mb 0.00 in0.0 mm 0.00 in0.0 mm 0.02 in0.5 mm
03:25 PM 46.2°F7.9°C 42.3°F5.7°C 89% 3.1 mph SW5.0 kmh SW 6.9 mph11.1 kmh 29.62 in1003.0 mb 0.00 in0.0 mm 0.00 in0.0 mm 0.02 in0.5 mm
03:05 PM 46.2°F7.9°C 42.3°F5.7°C 89% 3.1 mph SW5.0 kmh SW 10.5 mph16.9 kmh 29.62 in1003.0 mb 0.00 in0.0 mm 0.00 in0.0 mm 0.02 in0.5 mm
02:45 PM 46.2°F7.9°C 42.3°F5.7°C 89% 3.1 mph SW5.0 kmh SW 8.7 mph14.0 kmh 29.62 in1003.0 mb 0.00 in0.0 mm 0.00 in0.0 mm 0.02 in0.5 mm
02:25 PM 46.6°F8.1°C 42.6°F5.9°C 89% 3.1 mph SW5.0 kmh SW 8.7 mph14.0 kmh 29.62 in1003.0 mb 0.00 in0.0 mm 0.00 in0.0 mm 0.02 in0.5 mm
02:05 PM 46.2°F7.9°C 42.6°F5.9°C 90% 3.1 mph SSW5.0 kmh SSW 6.9 mph11.1 kmh 29.63 in1003.4 mb 0.00 in0.0 mm 0.00 in0.0 mm 0.02 in0.5 mm
01:45 PM 46.0°F7.8°C 42.4°F5.8°C 90% 3.1 mph S5.0 kmh S 11.2 mph18.0 kmh 29.63 in1003.4 mb 0.00 in0.0 mm 0.00 in0.0 mm 0.02 in0.5 mm
01:25 PM 46.0°F7.8°C 42.4°F5.8°C 90% 3.1 mph SW5.0 kmh SW 11.2 mph18.0 kmh 29.63 in1003.4 mb 0.00 in0.0 mm 0.00 in0.0 mm 0.02 in0.5 mm
01:05 PM 45.1°F7.3°C 41.5°F5.3°C 90% 2.5 mph SW4.0 kmh SW 10.5 mph16.9 kmh 29.64 in1003.7 mb 0.00 in0.0 mm 0.00 in0.0 mm 0.02 in0.5 mm
12:44 PM 45.0°F7.2°C 41.4°F5.2°C 90% 2.5 mph SSW4.0 kmh SSW 6.9 mph11.1 kmh 29.64 in1003.7 mb 0.00 in0.0 mm 0.00 in0.0 mm 0.02 in0.5 mm
12:25 PM 45.0°F7.2°C 41.7°F5.4°C 91% 3.1 mph SW5.0 kmh SW 6.9 mph11.1 kmh 29.64 in1003.7 mb 0.00 in0.0 mm 0.00 in0.0 mm 0.02 in0.5 mm
12:04 PM 43.9°F6.6°C 40.6°F4.8°C 91% 3.1 mph SW5.0 kmh SW 6.9 mph11.1 kmh 29.64 in1003.7 mb 0.00 in0.0 mm 0.00 in0.0 mm 0.02 in0.5 mm
11:45 AM 43.2°F6.2°C 39.9°F4.4°C 91% 2.5 mph WSW4.0 kmh WSW 9.4 mph15.1 kmh 29.64 in1003.7 mb 0.00 in0.0 mm 0.00 in0.0 mm 0.02 in0.5 mm
11:24 AM 42.8°F6.0°C 39.2°F4.0°C 90% 1.8 mph WSW2.9 kmh WSW 5.6 mph9.0 kmh 29.65 in1004.1 mb 0.00 in0.0 mm 0.00 in0.0 mm 0.02 in0.5 mm
11:04 AM 42.3°F5.7°C 39.0°F3.9°C 91% 2.5 mph SW4.0 kmh SW 6.9 mph11.1 kmh 29.65 in1004.1 mb 0.00 in0.0 mm 0.00 in0.0 mm 0.02 in0.5 mm
10:45 AM 41.5°F5.3°C 37.9°F3.3°C 90% 2.5 mph SW4.0 kmh SW 6.3 mph10.1 kmh 29.64 in1003.7 mb 0.00 in0.0 mm 0.00 in0.0 mm 0.02 in0.5 mm
10:24 AM 40.6°F4.8°C 37.0°F2.8°C 90% 2.5 mph SW4.0 kmh SW 6.9 mph11.1 kmh 29.65 in1004.1 mb 0.00 in0.0 mm 0.00 in0.0 mm 0.02 in0.5 mm
10:05 AM 39.9°F4.4°C 36.3°F2.4°C 90% 2.5 mph SW4.0 kmh SW 6.9 mph11.1 kmh 29.64 in1003.7 mb 0.00 in0.0 mm 0.00 in0.0 mm 0.02 in0.5 mm
09:44 AM 39.6°F4.2°C 36.0°F2.2°C 90% 2.5 mph SW4.0 kmh SW 6.9 mph11.1 kmh 29.65 in1004.1 mb 0.00 in0.0 mm 0.00 in0.0 mm 0.02 in0.5 mm
09:25 AM 39.4°F4.1°C 35.8°F2.1°C 90% 2.5 mph SW4.0 kmh SW 6.9 mph11.1 kmh 29.65 in1004.1 mb 0.00 in0.0 mm 0.00 in0.0 mm 0.02 in0.5 mm
09:04 AM 39.4°F4.1°C 35.8°F2.1°C 90% 2.5 mph SW4.0 kmh SW 6.9 mph11.1 kmh 29.65 in1004.1 mb 0.00 in0.0 mm 0.00 in0.0 mm 0.02 in0.5 mm
08:39 AM 39.7°F4.3°C 36.1°F2.3°C 90% 2.5 mph SW4.0 kmh SW 6.9 mph11.1 kmh 29.64 in1003.7 mb 0.01 in0.3 mm 0.00 in0.0 mm 0.02 in0.5 mm
08:29 AM 39.9°F4.4°C 36.3°F2.4°C 90% 2.5 mph SW4.0 kmh SW 6.9 mph11.1 kmh 29.64 in1003.7 mb 0.01 in0.3 mm 0.01 in0.3 mm 0.02 in0.5 mm
08:01 AM 40.1°F4.5°C 36.5°F2.5°C 90% 2.5 mph SW4.0 kmh SW 6.3 mph10.1 kmh 29.65 in1004.1 mb 0.01 in0.3 mm 0.01 in0.3 mm 0.01 in0.3 mm
07:41 AM 39.9°F4.4°C 36.3°F2.4°C 90% 2.5 mph SW4.0 kmh SW 8.7 mph14.0 kmh 29.64 in1003.7 mb 0.00 in0.0 mm 0.00 in0.0 mm 0.00 in0.0 mm
07:21 AM 39.9°F4.4°C 36.3°F2.4°C 90% 2.5 mph SW4.0 kmh SW 8.1 mph13.0 kmh 29.63 in1003.4 mb 0.00 in0.0 mm 0.00 in0.0 mm 0.00 in0.0 mm
07:01 AM 40.3°F4.6°C 36.7°F2.6°C 90% 2.5 mph SSW4.0 kmh SSW 8.1 mph13.0 kmh 29.65 in1004.1 mb 0.00 in0.0 mm 0.00 in0.0 mm 0.00 in0.0 mm
06:41 AM 40.5°F4.7°C 36.9°F2.7°C 90% 2.5 mph SW4.0 kmh SW 5.6 mph9.0 kmh 29.65 in1004.1 mb 0.00 in0.0 mm 0.00 in0.0 mm 0.00 in0.0 mm
06:21 AM 40.6°F4.8°C 37.0°F2.8°C 90% 3.8 mph SW6.1 kmh SW 8.7 mph14.0 kmh 29.65 in1004.1 mb 0.00 in0.0 mm 0.00 in0.0 mm 0.00 in0.0 mm
06:01 AM 40.6°F4.8°C 37.0°F2.8°C 90% 2.5 mph WSW4.0 kmh WSW 6.3 mph10.1 kmh 29.65 in1004.1 mb 0.00 in0.0 mm 0.00 in0.0 mm 0.00 in0.0 mm
05:41 AM 40.5°F4.7°C 36.9°F2.7°C 90% 3.1 mph SW5.0 kmh SW 10.5 mph16.9 kmh 29.66 in1004.4 mb 0.00 in0.0 mm 0.00 in0.0 mm 0.00 in0.0 mm
05:21 AM 40.3°F4.6°C 36.7°F2.6°C 90% 2.5 mph SW4.0 kmh SW 8.1 mph13.0 kmh 29.66 in1004.4 mb 0.00 in0.0 mm 0.00 in0.0 mm 0.00 in0.0 mm
05:00 AM 40.1°F4.5°C 36.5°F2.5°C 90% 1.8 mph SW2.9 kmh SW 5.6 mph9.0 kmh 29.66 in1004.4 mb 0.00 in0.0 mm 0.00 in0.0 mm 0.00 in0.0 mm
04:41 AM 39.9°F4.4°C 36.3°F2.4°C 90% 1.8 mph SW2.9 kmh SW 6.3 mph10.1 kmh 29.67 in1004.7 mb 0.00 in0.0 mm 0.00 in0.0 mm 0.00 in0.0 mm
04:20 AM 40.1°F4.5°C 36.5°F2.5°C 90% 2.5 mph SW4.0 kmh SW 6.3 mph10.1 kmh 29.67 in1004.7 mb 0.00 in0.0 mm 0.00 in0.0 mm 0.00 in0.0 mm
04:01 AM 40.1°F4.5°C 36.1°F2.3°C 89% 3.1 mph SW5.0 kmh SW 6.3 mph10.1 kmh 29.67 in1004.7 mb 0.00 in0.0 mm 0.00 in0.0 mm 0.00 in0.0 mm
03:40 AM 40.3°F4.6°C 36.3°F2.4°C 89% 1.8 mph W2.9 kmh W 6.3 mph10.1 kmh 29.68 in1005.1 mb 0.00 in0.0 mm 0.00 in0.0 mm 0.00 in0.0 mm
03:21 AM 40.5°F4.7°C 36.5°F2.5°C 89% 1.8 mph WSW2.9 kmh WSW 6.9 mph11.1 kmh 29.69 in1005.4 mb 0.00 in0.0 mm 0.00 in0.0 mm 0.00 in0.0 mm
03:00 AM 40.6°F4.8°C 36.7°F2.6°C 89% 2.5 mph SW4.0 kmh SW 6.9 mph11.1 kmh 29.69 in1005.4 mb 0.00 in0.0 mm 0.00 in0.0 mm 0.00 in0.0 mm
02:40 AM 40.6°F4.8°C 36.7°F2.6°C 89% 1.8 mph SW2.9 kmh SW 8.7 mph14.0 kmh 29.70 in1005.8 mb 0.00 in0.0 mm 0.00 in0.0 mm 0.00 in0.0 mm
02:20 AM 40.8°F4.9°C 36.9°F2.7°C 89% 1.8 mph SW2.9 kmh SW 6.9 mph11.1 kmh 29.70 in1005.8 mb 0.00 in0.0 mm 0.00 in0.0 mm 0.00 in0.0 mm
02:00 AM 40.8°F4.9°C 36.9°F2.7°C 89% 1.8 mph WSW2.9 kmh WSW 4.9 mph7.9 kmh 29.70 in1005.8 mb 0.00 in0.0 mm 0.00 in0.0 mm 0.00 in0.0 mm
01:41 AM 40.8°F4.9°C 36.9°F2.7°C 89% 1.8 mph WSW2.9 kmh WSW 6.3 mph10.1 kmh 29.70 in1005.8 mb 0.00 in0.0 mm 0.01 in0.3 mm 0.00 in0.0 mm
01:20 AM 41.0°F5.0°C 37.0°F2.8°C 89% 2.5 mph W4.0 kmh W 5.6 mph9.0 kmh 29.70 in1005.8 mb 0.00 in0.0 mm 0.00 in0.0 mm 0.00 in0.0 mm
01:00 AM 41.0°F5.0°C 37.0°F2.8°C 89% 1.8 mph W2.9 kmh W 3.8 mph6.1 kmh 29.71 in1006.1 mb 0.00 in0.0 mm 0.00 in0.0 mm 0.00 in0.0 mm
12:40 AM 41.0°F5.0°C 37.0°F2.8°C 89% 1.8 mph W2.9 kmh W 5.6 mph9.0 kmh 29.71 in1006.1 mb 0.00 in0.0 mm 0.00 in0.0 mm 0.00 in0.0 mm
12:20 AM 41.2°F5.1°C 37.2°F2.9°C 89% 1.8 mph WSW2.9 kmh WSW 4.9 mph7.9 kmh 29.71 in1006.1 mb 0.00 in0.0 mm 0.00 in0.0 mm 0.00 in0.0 mm
12:06 AM 41.2°F5.1°C 37.2°F2.9°C 89% 1.8 mph W2.9 kmh W 3.8 mph6.1 kmh 29.71 in1006.1 mb 0.00 in0.0 mm 0.00 in0.0 mm 0.00 in0.0 mm